Time;durP1;ratioP1;P1;durP2;ratioP2;P2;SDS_P1;SDS_P2;PMS_P1;PMS_P2;Temp;Humidity;BMP_temperature;BMP_pressure;BME280_temperature;BME280_humidity;BME280_pressure;Samples;Min_cycle;Max_cycle;Signal;HPM_P1;HPM_P2
2023/03/12 00:00:12;;;;;;;;;;;;;;;7.01;68.61;98427.81;5072277;28;19915;-69
2023/03/12 00:02:37;;;;;;;;;;;;;;;6.91;68.61;98436.53;5061003;28;19916;-69
2023/03/12 00:05:05;;;;;;;;;;;;;;;6.69;69.62;98424.56;5053600;28;19909;-69
2023/03/12 00:07:31;;;;;;;;;;;;;;;6.32;70.36;98434.19;5064224;28;19973;-69
2023/03/12 00:09:56;;;;;;;;;;;;;;;6.17;70.48;98448.63;5073402;28;19917;-69
2023/03/12 00:12:21;;;;;;;;;;;;;;;5.91;70.91;98446.66;5064815;28;19913;-69
2023/03/12 00:14:47;;;;;;;;;;;;;;;5.75;70.14;98458.25;5051977;28;20324;-68
2023/03/12 00:17:12;;;;;;;;;;;;;;;5.76;69.29;98453.53;5053439;28;19940;-69
2023/03/12 00:19:37;;;;;;;;;;;;;;;5.72;68.82;98445.06;5053398;28;20387;-68
2023/03/12 00:22:02;;;;;;;;;;;;;;;5.75;67.56;98444.38;5059242;28;19970;-68
2023/03/12 00:24:28;;;;;;;;;;;;;;;5.65;68.56;98453.03;5070618;28;19943;-68
2023/03/12 00:26:53;;;;;;;;;;;;;;;5.58;71.44;98449.97;5070943;28;19944;-68
2023/03/12 00:29:18;;;;;;;;;;;;;;;5.58;71.34;98458.28;5073066;28;19916;-68
2023/03/12 00:31:44;;;;;;;;;;;;;;;5.41;72.02;98454.34;5071797;28;19951;-68
2023/03/12 00:34:09;;;;;;;;;;;;;;;5.40;70.80;98454.69;5072971;28;20344;-68
2023/03/12 00:36:35;;;;;;;;;;;;;;;5.40;70.59;98458.25;5073213;28;19908;-68
2023/03/12 00:39:00;;;;;;;;;;;;;;;5.40;69.58;98457.47;5071719;28;19915;-68
2023/03/12 00:41:26;;;;;;;;;;;;;;;5.33;68.80;98453.19;5067988;28;19912;-68
2023/03/12 00:43:52;;;;;;;;;;;;;;;5.31;66.15;98471.31;5071479;28;20345;-69
2023/03/12 00:46:18;;;;;;;;;;;;;;;5.32;65.40;98462.66;5072965;28;19908;-68
2023/03/12 00:48:43;;;;;;;;;;;;;;;5.30;65.52;98464.94;5072626;28;20361;-69
2023/03/12 00:51:09;;;;;;;;;;;;;;;5.34;65.06;98481.75;5071729;28;19916;-68
2023/03/12 00:53:35;;;;;;;;;;;;;;;5.27;64.48;98468.38;5071360;28;19969;-68
2023/03/12 00:56:00;;;;;;;;;;;;;;;5.23;62.85;98472.13;5069914;28;19913;-68
2023/03/12 00:58:26;;;;;;;;;;;;;;;5.23;61.61;98470.16;5068553;28;19916;-68
2023/03/12 01:00:51;;;;;;;;;;;;;;;5.21;60.72;98466.88;5052550;28;19916;-68
2023/03/12 01:03:16;;;;;;;;;;;;;;;5.17;60.65;98460.38;5067087;28;19912;-68
2023/03/12 01:05:41;;;;;;;;;;;;;;;5.10;60.36;98462.78;5072348;28;20440;-68
2023/03/12 01:08:07;;;;;;;;;;;;;;;5.09;60.56;98466.72;5071133;28;19908;-68
2023/03/12 01:10:33;;;;;;;;;;;;;;;5.08;60.09;98459.53;5060551;28;19962;-68
2023/03/12 01:12:59;;;;;;;;;;;;;;;4.97;61.00;98461.81;5050982;28;19917;-68
2023/03/12 01:15:24;;;;;;;;;;;;;;;4.95;61.62;98470.44;5061932;28;19916;-68
2023/03/12 01:17:50;;;;;;;;;;;;;;;4.89;61.91;98464.22;5071093;28;19908;-68
2023/03/12 01:20:15;;;;;;;;;;;;;;;4.95;60.45;98472.38;5070964;28;20383;-68
2023/03/12 01:22:41;;;;;;;;;;;;;;;4.90;61.37;98463.06;5071207;28;20375;-68
2023/03/12 01:25:06;;;;;;;;;;;;;;;4.91;59.56;98464.72;5060936;28;19912;-68
2023/03/12 01:27:31;;;;;;;;;;;;;;;4.92;59.24;98468.31;5052077;28;19947;-68
2023/03/12 01:29:57;;;;;;;;;;;;;;;4.87;60.17;98473.97;5058170;28;20011;-68
2023/03/12 01:32:22;;;;;;;;;;;;;;;4.86;60.11;98481.50;5069973;28;19912;-68
2023/03/12 01:34:48;;;;;;;;;;;;;;;4.91;61.08;98475.78;5070664;28;19955;-68
2023/03/12 01:37:13;;;;;;;;;;;;;;;4.89;60.45;98489.16;5068596;28;19916;-68
2023/03/12 01:39:38;;;;;;;;;;;;;;;4.77;60.71;98480.63;5068987;28;20011;-68
2023/03/12 01:42:03;;;;;;;;;;;;;;;4.78;59.81;98476.72;5065702;28;20379;-68
2023/03/12 01:44:29;;;;;;;;;;;;;;;4.75;59.13;98480.16;5052023;28;19912;-68
2023/03/12 01:46:54;;;;;;;;;;;;;;;4.78;58.87;98485.03;5052317;28;19977;-67
2023/03/12 01:49:25;;;;;;;;;;;;;;;4.74;59.05;98484.06;5064512;28;19916;-68
2023/03/12 01:51:53;;;;;;;;;;;;;;;4.72;58.55;98491.88;5068656;28;19921;-68
2023/03/12 01:54:21;;;;;;;;;;;;;;;4.70;58.11;98489.41;5070030;28;20606;-68
2023/03/12 01:56:48;;;;;;;;;;;;;;;4.73;58.30;98487.97;5071791;28;19908;-68
2023/03/12 01:59:15;;;;;;;;;;;;;;;4.74;57.55;98484.06;5071751;28;19912;-68
2023/03/12 02:01:42;;;;;;;;;;;;;;;4.68;57.20;98488.09;5070082;28;19919;-67
2023/03/12 02:04:07;;;;;;;;;;;;;;;4.63;57.23;98500.97;5051595;28;19916;-68
2023/03/12 02:06:56;;;;;;;;;;;;;;;4.59;57.79;98505.50;5064227;28;20375;-68
2023/03/12 02:09:22;;;;;;;;;;;;;;;4.62;58.40;98526.19;5069334;28;19924;-68
2023/03/12 02:11:47;;;;;;;;;;;;;;;4.54;57.92;98522.25;5069726;28;19913;-68
2023/03/12 02:14:13;;;;;;;;;;;;;;;4.66;57.61;98526.38;5071504;28;20387;-68
2023/03/12 02:16:39;;;;;;;;;;;;;;;4.61;56.99;98542.00;5071261;28;19942;-68
2023/03/12 02:19:08;;;;;;;;;;;;;;;4.64;57.40;98527.53;5071545;28;19916;-68
2023/03/12 02:21:34;;;;;;;;;;;;;;;4.64;56.35;98530.28;5064451;28;19913;-68
2023/03/12 02:24:05;;;;;;;;;;;;;;;4.64;57.20;98546.09;5068745;28;19951;-68
2023/03/12 02:26:32;;;;;;;;;;;;;;;4.57;57.65;98540.19;5071294;28;19969;-68
2023/03/12 02:28:58;;;;;;;;;;;;;;;4.53;56.89;98553.84;5071372;28;19912;-68
2023/03/12 02:31:27;;;;;;;;;;;;;;;4.51;57.17;98556.13;5070044;28;19958;-68
2023/03/12 02:33:54;;;;;;;;;;;;;;;4.42;57.89;98569.09;5070366;28;19951;-68
2023/03/12 02:36:20;;;;;;;;;;;;;;;4.34;57.30;98571.50;5071161;28;20421;-68
2023/03/12 02:38:49;;;;;;;;;;;;;;;4.41;57.00;98571.06;5069525;28;19909;-68
2023/03/12 02:41:20;;;;;;;;;;;;;;;4.31;57.36;98579.63;5070257;28;19962;-68
2023/03/12 02:43:54;;;;;;;;;;;;;;;4.30;55.71;98576.03;5070199;28;20394;-68
2023/03/12 02:46:20;;;;;;;;;;;;;;;4.33;56.66;98575.38;5071232;28;20383;-68
2023/03/12 02:48:45;;;;;;;;;;;;;;;4.34;55.49;98581.75;5071142;28;19920;-68
2023/03/12 02:51:11;;;;;;;;;;;;;;;4.21;56.55;98594.53;5069849;28;19909;-68
2023/03/12 02:53:36;;;;;;;;;;;;;;;4.17;56.92;98597.13;5053901;28;20376;-68
2023/03/12 02:56:01;;;;;;;;;;;;;;;4.20;56.46;98606.72;5068751;28;19948;-68
2023/03/12 02:58:27;;;;;;;;;;;;;;;4.17;54.98;98597.13;5071167;28;19912;-68
2023/03/12 03:00:52;;;;;;;;;;;;;;;4.21;55.55;98606.44;5071043;28;19908;-68
2023/03/12 03:03:17;;;;;;;;;;;;;;;4.14;56.68;98602.47;5070167;28;20280;-68
2023/03/12 03:05:42;;;;;;;;;;;;;;;4.03;56.28;98594.41;5070904;28;19962;-68
2023/03/12 03:08:08;;;;;;;;;;;;;;;4.08;56.86;98596.22;5066340;28;20474;-68
2023/03/12 03:10:33;;;;;;;;;;;;;;;4.06;56.24;98606.78;5068544;28;19959;-68
2023/03/12 03:12:58;;;;;;;;;;;;;;;3.99;55.75;98612.75;5069399;28;19916;-68
2023/03/12 03:15:24;;;;;;;;;;;;;;;3.88;57.89;98614.94;5065690;28;19922;-68
2023/03/12 03:17:49;;;;;;;;;;;;;;;3.88;57.58;98622.44;5050615;28;19931;-68
2023/03/12 03:20:15;;;;;;;;;;;;;;;3.93;56.71;98622.28;5054580;28;19909;-68
2023/03/12 03:22:40;;;;;;;;;;;;;;;3.98;56.74;98636.03;5061186;28;20406;-68
2023/03/12 03:25:06;;;;;;;;;;;;;;;4.00;56.63;98635.72;5072434;28;19912;-68
2023/03/12 03:27:32;;;;;;;;;;;;;;;4.01;56.66;98632.63;5074301;28;19912;-68
2023/03/12 03:29:57;;;;;;;;;;;;;;;3.97;55.96;98642.66;5073133;28;19916;-68
2023/03/12 03:32:22;;;;;;;;;;;;;;;3.99;55.89;98645.13;5073217;28;19927;-68
2023/03/12 03:34:48;;;;;;;;;;;;;;;4.19;56.47;98652.16;5073047;28;19935;-68
2023/03/12 03:37:13;;;;;;;;;;;;;;;4.33;55.41;98641.84;5074221;28;19909;-68
2023/03/12 03:39:38;;;;;;;;;;;;;;;4.53;55.95;98664.63;5071986;28;19917;-68
2023/03/12 03:42:04;;;;;;;;;;;;;;;4.32;53.74;98670.66;5067028;28;20386;-68
2023/03/12 03:44:29;;;;;;;;;;;;;;;4.41;54.77;98669.94;5072992;28;19999;-68
2023/03/12 03:46:54;;;;;;;;;;;;;;;4.36;54.56;98668.09;5069555;28;19913;-68
2023/03/12 03:49:20;;;;;;;;;;;;;;;4.33;54.64;98674.25;5073996;28;19912;-68
2023/03/12 03:51:45;;;;;;;;;;;;;;;4.42;54.59;98677.94;5059241;28;20369;-68
2023/03/12 03:54:10;;;;;;;;;;;;;;;4.26;55.33;98677.47;5072328;28;19912;-68
2023/03/12 03:56:36;;;;;;;;;;;;;;;4.07;56.38;98685.94;5073880;28;19947;-68
2023/03/12 03:59:01;;;;;;;;;;;;;;;4.03;57.33;98682.94;5072416;28;19908;-68
2023/03/12 04:01:27;;;;;;;;;;;;;;;3.86;56.53;98682.75;5072997;28;19909;-67
2023/03/12 04:03:53;;;;;;;;;;;;;;;3.81;55.47;98674.59;5070742;28;19912;-68
2023/03/12 04:06:18;;;;;;;;;;;;;;;3.88;54.83;98686.06;5073555;28;19920;-68
2023/03/12 04:08:43;;;;;;;;;;;;;;;4.08;52.08;98680.06;5073642;28;19913;-68
2023/03/12 04:11:10;;;;;;;;;;;;;;;4.08;53.18;98679.25;5073510;28;20038;-68
2023/03/12 04:13:35;;;;;;;;;;;;;;;4.07;52.78;98688.69;5071487;28;20350;-68
2023/03/12 04:16:01;;;;;;;;;;;;;;;4.07;53.53;98691.47;5073408;28;19917;-68
2023/03/12 04:18:26;;;;;;;;;;;;;;;3.99;54.32;98698.56;5071818;28;19919;-68
2023/03/12 04:20:51;;;;;;;;;;;;;;;3.99;52.26;98698.56;5071284;28;19919;-68
2023/03/12 04:23:17;;;;;;;;;;;;;;;3.93;53.75;98695.06;5071587;28;20302;-68
2023/03/12 04:25:42;;;;;;;;;;;;;;;3.93;53.74;98697.00;5073254;28;19912;-68
2023/03/12 04:28:07;;;;;;;;;;;;;;;3.87;55.33;98696.28;5073098;28;19915;-68
2023/03/12 04:30:33;;;;;;;;;;;;;;;3.81;55.06;98702.25;5071778;28;20006;-68
2023/03/12 04:32:58;;;;;;;;;;;;;;;3.67;55.89;98708.59;5070895;28;19912;-68
2023/03/12 04:35:23;;;;;;;;;;;;;;;3.72;57.09;98716.78;5071857;28;19915;-68
2023/03/12 04:37:49;;;;;;;;;;;;;;;3.76;56.35;98723.38;5071964;28;20283;-68
2023/03/12 04:40:14;;;;;;;;;;;;;;;3.79;55.83;98727.44;5071702;28;19915;-69
2023/03/12 04:42:40;;;;;;;;;;;;;;;3.90;55.41;98734.41;5071636;28;20276;-68
2023/03/12 04:45:05;;;;;;;;;;;;;;;3.88;56.25;98741.41;5056984;28;20273;-68
2023/03/12 04:47:31;;;;;;;;;;;;;;;3.81;55.33;98741.81;5056310;28;19916;-68
2023/03/12 04:49:56;;;;;;;;;;;;;;;3.90;54.80;98752.97;5052960;28;19966;-68
2023/03/12 04:52:22;;;;;;;;;;;;;;;3.78;56.26;98754.31;5063835;28;20586;-68
2023/03/12 04:54:47;;;;;;;;;;;;;;;4.00;55.12;98750.00;5072780;28;19908;-69
2023/03/12 04:57:12;;;;;;;;;;;;;;;4.19;55.46;98758.19;5072570;28;19966;-68
2023/03/12 04:59:38;;;;;;;;;;;;;;;3.88;55.33;98756.03;5072684;28;20012;-68
2023/03/12 05:02:03;;;;;;;;;;;;;;;3.91;55.32;98760.94;5072604;28;20333;-70
2023/03/12 05:04:28;;;;;;;;;;;;;;;3.71;55.84;98769.69;5068737;28;19965;-69
2023/03/12 05:06:53;;;;;;;;;;;;;;;3.78;55.89;98767.31;5052829;28;19905;-68
2023/03/12 05:09:19;;;;;;;;;;;;;;;3.73;56.82;98772.94;5052979;28;19955;-71
2023/03/12 05:11:44;;;;;;;;;;;;;;;3.66;56.26;98776.13;5071324;28;19915;-69
2023/03/12 05:14:10;;;;;;;;;;;;;;;3.68;56.24;98770.25;5053839;28;20383;-69
2023/03/12 05:16:36;;;;;;;;;;;;;;;3.76;55.54;98778.69;5051652;28;19917;-69
2023/03/12 05:19:01;;;;;;;;;;;;;;;3.84;54.16;98784.63;5052192;28;19909;-72
2023/03/12 05:21:26;;;;;;;;;;;;;;;3.88;54.89;98797.53;5050939;28;19913;-71
2023/03/12 05:23:52;;;;;;;;;;;;;;;3.88;55.31;98793.97;5064748;28;19978;-69
2023/03/12 05:26:17;;;;;;;;;;;;;;;3.88;53.43;98802.28;5075560;28;20318;-68
2023/03/12 05:28:42;;;;;;;;;;;;;;;3.83;54.75;98805.94;5071948;28;19912;-72
2023/03/12 05:31:09;;;;;;;;;;;;;;;3.78;55.41;98804.09;5068585;28;19912;-69
2023/03/12 05:33:35;;;;;;;;;;;;;;;3.83;55.57;98802.34;5071105;28;19944;-69
2023/03/12 05:36:00;;;;;;;;;;;;;;;3.74;55.30;98803.09;5072223;28;19909;-69
2023/03/12 05:38:26;;;;;;;;;;;;;;;3.86;55.71;98810.88;5072000;28;19915;-72
2023/03/12 05:40:53;;;;;;;;;;;;;;;3.98;55.03;98817.84;5070175;28;20393;-72
2023/03/12 05:43:18;;;;;;;;;;;;;;;4.13;55.26;98820.28;5070083;28;20387;-74
2023/03/12 05:45:43;;;;;;;;;;;;;;;4.28;55.09;98841.31;5058666;28;19912;-73
2023/03/12 05:48:09;;;;;;;;;;;;;;;4.51;54.40;98849.72;5066992;28;19960;-72
2023/03/12 05:50:34;;;;;;;;;;;;;;;4.47;53.16;98857.81;5054496;28;19916;-73
2023/03/12 05:52:59;;;;;;;;;;;;;;;4.56;52.89;98855.13;5070607;28;20429;-73
2023/03/12 05:55:24;;;;;;;;;;;;;;;4.61;52.79;98868.06;5071850;28;19908;-72
2023/03/12 05:57:51;;;;;;;;;;;;;;;4.77;52.94;98858.28;5071558;28;19909;-72
2023/03/12 06:00:16;;;;;;;;;;;;;;;4.82;53.20;98868.41;5064324;28;19969;-72
2023/03/12 06:02:42;;;;;;;;;;;;;;;4.86;51.36;98866.69;5075072;28;19912;-70
2023/03/12 06:05:08;;;;;;;;;;;;;;;4.78;52.15;98879.31;5071427;28;19909;-70
2023/03/12 06:07:34;;;;;;;;;;;;;;;5.03;51.44;98881.81;5071615;28;19939;-71
2023/03/12 06:09:59;;;;;;;;;;;;;;;5.20;50.82;98886.69;5070986;28;19916;-71
2023/03/12 06:12:24;;;;;;;;;;;;;;;5.09;50.51;98883.34;5062366;28;19913;-71
2023/03/12 06:14:50;;;;;;;;;;;;;;;5.11;50.15;98886.63;5060114;28;19923;-70
2023/03/12 06:17:15;;;;;;;;;;;;;;;5.29;50.20;98887.59;5052035;28;19978;-69
2023/03/12 06:19:40;;;;;;;;;;;;;;;5.25;49.81;98891.31;5065209;28;19966;-69
2023/03/12 06:22:05;;;;;;;;;;;;;;;5.48;48.14;98906.00;5062513;28;20456;-72
2023/03/12 06:24:31;;;;;;;;;;;;;;;5.45;47.84;98907.47;5066213;28;20299;-71
2023/03/12 06:26:56;;;;;;;;;;;;;;;5.45;47.73;98909.41;5058113;28;19917;-70
2023/03/12 06:29:21;;;;;;;;;;;;;;;5.33;47.22;98909.97;5066643;28;19935;-72
2023/03/12 06:31:47;;;;;;;;;;;;;;;5.46;47.00;98905.50;5060377;28;19935;-71
2023/03/12 06:34:12;;;;;;;;;;;;;;;5.64;46.46;98903.66;5065989;28;20393;-71
2023/03/12 06:36:37;;;;;;;;;;;;;;;5.72;47.97;98905.69;5071881;28;20003;-72
2023/03/12 06:39:07;;;;;;;;;;;;;;;5.78;46.88;98911.94;5068707;28;19928;-72
2023/03/12 06:41:32;;;;;;;;;;;;;;;5.55;46.52;98925.81;5067117;28;19916;-71
2023/03/12 06:43:58;;;;;;;;;;;;;;;5.72;44.74;98915.97;5050931;28;19935;-73
2023/03/12 06:46:24;;;;;;;;;;;;;;;5.70;44.70;98930.16;5065530;28;19922;-74
2023/03/12 06:48:50;;;;;;;;;;;;;;;5.74;45.29;98939.50;5071843;28;19927;-73
2023/03/12 06:51:15;;;;;;;;;;;;;;;6.02;46.01;98944.91;5060307;28;19916;-71
2023/03/12 06:53:41;;;;;;;;;;;;;;;5.88;43.35;98936.66;5067056;28;19915;-72
2023/03/12 06:56:07;;;;;;;;;;;;;;;5.99;44.69;98939.97;5065138;28;19927;-70
2023/03/12 06:58:32;;;;;;;;;;;;;;;6.12;44.42;98941.06;5065239;28;19912;-71
2023/03/12 07:00:57;;;;;;;;;;;;;;;6.20;44.68;98955.31;5065954;28;19974;-72
2023/03/12 07:03:23;;;;;;;;;;;;;;;6.18;42.02;98950.91;5065547;28;19994;-74
2023/03/12 07:05:49;;;;;;;;;;;;;;;6.24;42.47;98962.69;5066204;28;19961;-73
2023/03/12 07:08:15;;;;;;;;;;;;;;;6.24;40.81;98954.34;5058611;28;19995;-74
2023/03/12 07:10:40;;;;;;;;;;;;;;;6.33;41.40;98971.06;5055742;28;19940;-78
2023/03/12 07:13:06;;;;;;;;;;;;;;;6.23;41.01;98957.47;5071696;28;19912;-73
2023/03/12 07:15:31;;;;;;;;;;;;;;;6.42;42.19;98976.69;5070350;28;20478;-73
2023/03/12 07:18:03;;;;;;;;;;;;;;;6.64;43.24;98970.22;5052903;28;20340;-73
2023/03/12 07:20:28;;;;;;;;;;;;;;;6.69;41.14;98972.06;5062469;28;19908;-71
2023/03/12 07:22:54;;;;;;;;;;;;;;;6.55;41.37;98969.38;5063324;28;20583;-72
2023/03/12 07:25:19;;;;;;;;;;;;;;;6.72;40.97;98985.31;5072690;28;19923;-72
2023/03/12 07:27:44;;;;;;;;;;;;;;;6.62;40.11;98963.34;5069254;28;19912;-76
2023/03/12 07:30:10;;;;;;;;;;;;;;;6.58;39.28;98975.13;5053779;28;20461;-69
2023/03/12 07:32:35;;;;;;;;;;;;;;;6.62;39.37;98963.34;5066979;28;19922;-69
2023/03/12 07:35:03;;;;;;;;;;;;;;;6.58;39.18;98974.31;5060492;28;20422;-70
2023/03/12 07:37:28;;;;;;;;;;;;;;;6.79;40.72;98985.66;5062162;28;19916;-72
2023/03/12 07:39:54;;;;;;;;;;;;;;;6.84;39.08;98971.59;5070082;28;19923;-71
2023/03/12 07:42:20;;;;;;;;;;;;;;;6.98;38.69;98982.63;5058724;28;20383;-73
2023/03/12 07:44:45;;;;;;;;;;;;;;;6.95;38.85;98982.44;5065302;28;19965;-67
2023/03/12 07:47:10;;;;;;;;;;;;;;;6.91;38.31;98962.78;5060007;28;20433;-69
2023/03/12 07:49:36;;;;;;;;;;;;;;;7.01;39.33;98981.16;5051004;28;19921;-68
2023/03/12 07:52:01;;;;;;;;;;;;;;;6.88;38.13;98986.53;5062390;28;19930;-68
2023/03/12 07:54:29;;;;;;;;;;;;;;;6.98;39.79;98976.22;5066153;28;19923;-69
2023/03/12 07:56:56;;;;;;;;;;;;;;;6.95;38.30;98982.44;5052250;28;19916;-68
2023/03/12 07:59:22;;;;;;;;;;;;;;;6.89;37.58;98967.88;5054656;28;20383;-69
2023/03/12 08:01:48;;;;;;;;;;;;;;;6.99;38.50;98977.84;5060302;28;19912;-70
2023/03/12 08:04:13;;;;;;;;;;;;;;;7.19;37.19;98992.31;5059542;28;19967;-70
2023/03/12 08:06:41;;;;;;;;;;;;;;;7.15;37.83;98987.41;5056346;28;20446;-70
2023/03/12 08:09:07;;;;;;;;;;;;;;;7.30;38.47;99002.00;5054949;28;19916;-70
2023/03/12 08:11:33;;;;;;;;;;;;;;;7.41;38.10;98997.75;5056810;28;19962;-71
2023/03/12 08:13:58;;;;;;;;;;;;;;;7.53;40.05;98996.28;5061245;28;19920;-71
2023/03/12 08:16:24;;;;;;;;;;;;;;;7.43;37.43;98997.44;5056506;28;20421;-70
2023/03/12 08:18:52;;;;;;;;;;;;;;;7.45;38.88;98984.81;5056354;28;19928;-70
2023/03/12 08:21:17;;;;;;;;;;;;;;;7.51;38.57;98991.03;5049814;28;20350;-70
2023/03/12 08:23:43;;;;;;;;;;;;;;;7.35;38.51;98996.25;5059433;28;19916;-70
2023/03/12 08:26:08;;;;;;;;;;;;;;;7.34;37.07;98996.59;5064407;28;20387;-71
2023/03/12 08:28:33;;;;;;;;;;;;;;;7.40;38.58;98986.94;5068011;28;19913;-70
2023/03/12 08:30:59;;;;;;;;;;;;;;;7.33;38.99;98987.41;5052536;28;19916;-70
2023/03/12 08:33:24;;;;;;;;;;;;;;;7.30;36.92;98986.13;5073198;28;19917;-70
2023/03/12 08:35:50;;;;;;;;;;;;;;;7.39;37.95;98993.66;5061634;28;19919;-71
2023/03/12 08:38:15;;;;;;;;;;;;;;;7.72;39.45;98991.25;5063453;28;19913;-70
2023/03/12 08:40:41;;;;;;;;;;;;;;;7.71;38.73;98986.78;5063292;28;19935;-70
2023/03/12 08:43:07;;;;;;;;;;;;;;;8.09;39.64;98984.50;5057131;28;19922;-70
2023/03/12 08:45:35;;;;;;;;;;;;;;;7.86;39.06;98982.69;5063736;28;19938;-71
2023/03/12 08:48:00;;;;;;;;;;;;;;;7.82;38.56;98967.81;5059452;28;19920;-72
2023/03/12 08:50:28;;;;;;;;;;;;;;;7.82;37.75;98981.72;5070929;28;19916;-70
2023/03/12 08:52:53;;;;;;;;;;;;;;;7.88;37.33;98976.81;5071488;28;20447;-72
2023/03/12 08:55:18;;;;;;;;;;;;;;;7.73;37.80;98973.38;5072469;28;19931;-71
2023/03/12 08:57:44;;;;;;;;;;;;;;;7.80;36.87;98963.69;5070754;28;19916;-72
2023/03/12 09:00:13;;;;;;;;;;;;;;;8.05;36.98;98973.19;5061455;28;19917;-71
2023/03/12 09:02:39;;;;;;;;;;;;;;;8.28;36.27;98959.84;5070446;28;19917;-71
2023/03/12 09:05:05;;;;;;;;;;;;;;;8.23;36.32;98967.56;5071803;28;19919;-71
2023/03/12 09:07:31;;;;;;;;;;;;;;;7.98;35.76;98956.97;5064496;28;19943;-67
2023/03/12 09:09:56;;;;;;;;;;;;;;;8.08;35.98;98977.25;5071738;28;19923;-70
2023/03/12 09:12:22;;;;;;;;;;;;;;;8.05;36.99;98978.75;5071562;28;19921;-66
2023/03/12 09:14:47;;;;;;;;;;;;;;;8.25;35.68;98980.03;5065459;28;20356;-73
2023/03/12 09:17:12;;;;;;;;;;;;;;;8.21;34.52;98984.63;5061773;28;19966;-73
2023/03/12 09:19:38;;;;;;;;;;;;;;;8.39;37.07;98981.78;5055535;28;19923;-66
2023/03/12 09:22:03;;;;;;;;;;;;;;;8.17;35.44;98980.84;5059970;28;20370;-67
2023/03/12 09:24:30;;;;;;;;;;;;;;;8.54;36.11;98966.53;5063284;28;19930;-67
2023/03/12 09:26:55;;;;;;;;;;;;;;;8.53;35.38;98960.13;5057960;28;19916;-67
2023/03/12 09:29:21;;;;;;;;;;;;;;;8.67;35.13;98965.50;5059274;28;19927;-71
2023/03/12 09:31:46;;;;;;;;;;;;;;;8.64;34.13;98959.75;5054956;28;19984;-66
2023/03/12 09:34:11;;;;;;;;;;;;;;;8.66;35.09;98968.59;5060869;28;19916;-67
2023/03/12 09:36:36;;;;;;;;;;;;;;;8.64;33.37;98962.53;5060235;28;19924;-67
2023/03/12 09:39:02;;;;;;;;;;;;;;;8.76;33.52;98961.84;5057865;28;19963;-67
2023/03/12 09:41:30;;;;;;;;;;;;;;;8.36;33.14;98965.75;5063976;28;19916;-66
2023/03/12 09:43:59;;;;;;;;;;;;;;;8.55;34.49;98946.66;5056893;28;19974;-66
2023/03/12 09:46:27;;;;;;;;;;;;;;;8.52;34.82;98955.69;5065862;28;19924;-70
2023/03/12 09:48:55;;;;;;;;;;;;;;;8.50;33.74;98960.78;5061695;28;20434;-70
2023/03/12 09:51:32;;;;;;;;;;;;;;;8.40;33.15;98961.97;5056890;28;19921;-72
2023/03/12 09:54:00;;;;;;;;;;;;;;;8.61;32.92;98943.72;5061497;28;19916;-68
2023/03/12 09:56:26;;;;;;;;;;;;;;;8.50;33.58;98948.78;5063798;28;20372;-69
2023/03/12 09:58:54;;;;;;;;;;;;;;;8.35;33.46;98950.16;5054065;28;19923;-70
2023/03/12 10:01:37;;;;;;;;;;;;;;;8.82;35.02;98955.75;5079279;28;19923;-71
2023/03/12 10:04:06;;;;;;;;;;;;;;;8.74;34.91;98952.97;5056712;28;20323;-71
2023/03/12 10:06:38;;;;;;;;;;;;;;;9.02;35.15;98975.63;5056996;28;19977;-70
2023/03/12 10:09:19;;;;;;;;;;;;;;;8.75;34.00;98976.91;5062485;28;19916;-70
2023/03/12 10:11:59;;;;;;;;;;;;;;;8.61;34.13;98977.97;5049621;28;19917;-69
2023/03/12 10:14:25;;;;;;;;;;;;;;;8.53;34.61;98988.00;5069824;28;19920;-66
2023/03/12 10:16:59;;;;;;;;;;;;;;;8.62;35.12;98978.78;5048352;28;19973;-70
2023/03/12 10:19:34;;;;;;;;;;;;;;;8.65;34.42;99001.25;5059591;28;20003;-69
2023/03/12 10:21:59;;;;;;;;;;;;;;;8.65;33.50;99000.41;5053494;28;19926;-64
2023/03/12 10:24:26;;;;;;;;;;;;;;;8.41;35.34;98991.47;5055245;28;20218;-70
2023/03/12 10:26:54;;;;;;;;;;;;;;;8.45;35.19;98991.63;5058124;28;19916;-70
2023/03/12 10:29:22;;;;;;;;;;;;;;;8.77;35.79;98981.00;5078192;28;19931;-73
2023/03/12 10:32:06;;;;;;;;;;;;;;;8.74;34.37;98984.47;5061358;28;19963;-71
2023/03/12 10:34:49;;;;;;;;;;;;;;;8.80;32.67;98969.19;5066131;28;19920;-70
2023/03/12 10:37:25;;;;;;;;;;;;;;;8.68;33.78;98960.72;5061276;28;19920;-73
2023/03/12 10:39:51;;;;;;;;;;;;;;;8.87;34.19;98982.63;5053758;28;19960;-74
2023/03/12 10:42:18;;;;;;;;;;;;;;;9.19;34.75;98976.72;5070335;28;20394;-73
2023/03/12 10:44:45;;;;;;;;;;;;;;;9.06;34.38;98971.03;5070103;28;19912;-74
2023/03/12 10:47:31;;;;;;;;;;;;;;;9.29;36.21;98975.50;5055086;28;19912;-71
2023/03/12 10:50:15;;;;;;;;;;;;;;;9.20;32.86;98972.75;5064108;28;19924;-72
2023/03/12 10:52:40;;;;;;;;;;;;;;;9.23;32.33;98978.50;5064219;28;19916;-71
2023/03/12 10:55:18;;;;;;;;;;;;;;;9.24;33.08;98971.75;5070920;28;19935;-69
2023/03/12 10:57:43;;;;;;;;;;;;;;;9.45;34.47;98981.28;5063018;28;19919;-70
2023/03/12 11:00:11;;;;;;;;;;;;;;;9.41;34.40;98976.41;5058823;28;20627;-70
2023/03/12 11:02:53;;;;;;;;;;;;;;;9.25;34.72;98967.81;5059702;28;19913;-72
2023/03/12 11:05:30;;;;;;;;;;;;;;;9.47;35.27;98976.19;5059999;28;20348;-70
2023/03/12 11:07:56;;;;;;;;;;;;;;;9.51;34.74;98969.59;5065972;28;20342;-69
2023/03/12 11:10:26;;;;;;;;;;;;;;;9.97;34.07;98969.69;5087538;28;19920;-69
2023/03/12 11:12:56;;;;;;;;;;;;;;;9.92;33.56;98972.69;5069393;28;19959;-70
2023/03/12 11:15:30;;;;;;;;;;;;;;;9.89;33.45;98964.97;5068416;28;20367;-69
2023/03/12 11:18:15;;;;;;;;;;;;;;;9.41;33.82;98954.06;5055693;28;20040;-71
2023/03/12 11:20:40;;;;;;;;;;;;;;;9.49;34.14;98948.75;5052223;28;20379;-67
2023/03/12 11:23:12;;;;;;;;;;;;;;;9.80;33.96;98942.72;5086497;28;19919;-68
2023/03/12 11:25:40;;;;;;;;;;;;;;;10.04;34.81;98946.78;5050669;28;19956;-68
2023/03/12 11:28:10;;;;;;;;;;;;;;;9.88;32.86;98943.81;5083935;28;19916;-69
2023/03/12 11:30:38;;;;;;;;;;;;;;;9.82;33.27;98950.78;5083801;28;19940;-68
2023/03/12 11:33:03;;;;;;;;;;;;;;;9.95;34.42;98952.44;5059373;28;19909;-68
2023/03/12 11:35:44;;;;;;;;;;;;;;;10.16;33.21;98948.81;5060648;28;19917;-69
2023/03/12 11:38:17;;;;;;;;;;;;;;;9.92;33.66;98950.34;5065319;28;20450;-69
2023/03/12 11:40:42;;;;;;;;;;;;;;;10.46;33.96;98945.84;5065682;28;19919;-70
2023/03/12 11:43:19;;;;;;;;;;;;;;;10.65;33.15;98952.88;5063706;28;19912;-70
2023/03/12 11:45:50;;;;;;;;;;;;;;;10.61;33.21;98952.75;5060883;28;20374;-70
2023/03/12 11:48:23;;;;;;;;;;;;;;;10.77;34.13;98949.25;5057166;28;20011;-70
2023/03/12 11:51:07;;;;;;;;;;;;;;;10.85;33.15;98948.34;5069044;28;19916;-70
2023/03/12 11:53:32;;;;;;;;;;;;;;;10.73;33.14;98946.34;5061194;28;19932;-70
2023/03/12 11:56:12;;;;;;;;;;;;;;;10.77;31.85;98949.25;5061032;28;19916;-70
2023/03/12 11:58:43;;;;;;;;;;;;;;;11.44;32.92;98946.19;5061852;28;19959;-70
2023/03/12 12:01:17;;;;;;;;;;;;;;;10.91;33.12;98940.53;5059098;28;19938;-70
2023/03/12 12:03:49;;;;;;;;;;;;;;;10.91;33.18;98946.13;5051400;28;19908;-70
2023/03/12 12:06:14;;;;;;;;;;;;;;;10.68;31.88;98941.00;5064191;28;19908;-70
2023/03/12 12:08:49;;;;;;;;;;;;;;;10.71;31.28;98931.88;5053770;28;19927;-70
2023/03/12 12:11:25;;;;;;;;;;;;;;;10.58;32.06;98935.84;5060494;28;19918;-70
2023/03/12 12:14:17;;;;;;;;;;;;;;;11.07;32.64;98941.44;5064182;28;19916;-70
2023/03/12 12:16:45;;;;;;;;;;;;;;;10.93;32.47;98935.38;5032773;28;19924;-70
2023/03/12 12:19:21;;;;;;;;;;;;;;;10.71;33.78;98923.50;5069627;28;20367;-70
2023/03/12 12:22:02;;;;;;;;;;;;;;;10.64;33.31;98937.25;5061875;28;19934;-70
2023/03/12 12:24:33;;;;;;;;;;;;;;;10.88;33.14;98935.63;5061775;28;19923;-70
2023/03/12 12:27:05;;;;;;;;;;;;;;;11.00;32.50;98941.22;5055640;28;20023;-70
2023/03/12 12:29:36;;;;;;;;;;;;;;;11.28;31.80;98937.69;5061935;28;19921;-69
2023/03/12 12:32:04;;;;;;;;;;;;;;;11.30;31.71;98940.16;5070551;28;19931;-70
2023/03/12 12:34:35;;;;;;;;;;;;;;;11.22;32.73;98948.31;5067328;28;19912;-70
2023/03/12 12:37:19;;;;;;;;;;;;;;;10.73;32.31;98946.34;5061150;28;19952;-70
2023/03/12 12:39:51;;;;;;;;;;;;;;;10.84;32.67;98951.47;5061719;28;19920;-70
2023/03/12 12:42:20;;;;;;;;;;;;;;;10.99;31.02;98956.38;5061278;28;20772;-70
2023/03/12 12:44:47;;;;;;;;;;;;;;;11.30;31.11;98962.53;5077419;28;20280;-69
2023/03/12 12:47:17;;;;;;;;;;;;;;;11.38;31.11;98948.41;5060741;28;20382;-70
2023/03/12 12:49:45;;;;;;;;;;;;;;;11.40;31.70;98956.44;5079216;28;19928;-70
2023/03/12 12:52:12;;;;;;;;;;;;;;;10.79;32.16;98953.34;5064349;28;20034;-70
2023/03/12 12:54:40;;;;;;;;;;;;;;;10.93;34.17;98954.97;5060790;28;20375;-70